Itagiba, Brazil
Current Conditions -  °F | °C
As of 12:00 AM on Sunday 25 Jan 2015 (Local Time) from SBIL Reporting Station
Few Clouds Few Clouds  
Wind Chill: 81°   Ceiling: Unl
Heat Index: 85°   Visibility: 6mi
Dew Point: 72°   Wind: 7mph
Humidity: 74%   Direction: 80°E
Pressure: 29.97"   Gusts: NA
Location:  14.28°S, 39.84°W
Report Text: SBIL 250300Z 08006KT 9999 FEW025 27/22 Q1015
Loading
Personal Weather Stations






























Interactive Weather Map New forecast layout! Learn more

10-Day Weather Forecast

Advertisements
Track Severe Weather on mobile